Terminal Aerodrome Forecast
Issued by NWS Charleston, WV

Current Version | Previous Version | Graphics & Text | Print | Product List | Glossary On
Versions: 1 2 3 4 5 6 7 8 9 10 11 12 13 14 15 16 17 18 19 20 21 22 23 24 25
000
FTUS41 KRLX 171100
TAFCRW
TAF
KCRW 171137Z 1712/1812 00000KT 1/4SM FG VV001
     FM171300 00000KT 2SM BR FEW001 BKN015
     FM171400 00000KT 6SM BR BKN015
     FM171500 00000KT P6SM BKN025
     FM171600 30004KT P6SM FEW035
     FM180400 00000KT 1 1/2SM BR FEW035
     FM180500 28001KT 1/4SM FG BKN001=

USA.gov is the U.S. government's official web portal to all federal, state and local government web resources and services.